Palma de Mallorca Aeropuerto en Baleares

latitud = 39° 33' 39''N | longitud = 002° 44' 12''E
8 metros sobre el nivel del mar |

Fecha, hora, temperatura, viento dirección y velocidad, humedad y presión.

  • 22-11-2017 09:00:00 | 10.60°C | Calma |0.00 km/h | 97.00% | 1018.00 hPa
  • 22-11-2017 08:00:00 | 8.20°C | Noroeste |2.00 km/h | 98.00% | 1017.80 hPa
  • 22-11-2017 07:00:00 | 8.30°C | Norte |2.00 km/h | 97.00% | 1018.00 hPa
  • 22-11-2017 06:00:00 | 8.30°C | Calma |0.00 km/h | 98.00% | 1018.00 hPa
  • 22-11-2017 05:00:00 | 8.00°C | Calma |0.00 km/h | 97.00% | 1018.30 hPa
  • 22-11-2017 04:00:00 | 8.80°C | Norte |3.00 km/h | 97.00% | 1018.50 hPa
  • 22-11-2017 03:00:00 | 9.20°C | Norte |3.00 km/h | 97.00% | 1018.90 hPa
  • 22-11-2017 02:00:00 | 10.30°C | Nordeste |2.00 km/h | 96.00% | 1019.10 hPa
  • 22-11-2017 01:00:00 | 10.70°C | Nordeste |4.00 km/h | 95.00% | 1019.50 hPa
  • 22-11-2017 00:00:00 | 11.30°C | Nordeste |3.00 km/h | 94.00% | 1019.90 hPa
  • 21-11-2017 23:00:00 | 11.40°C | Nordeste |4.00 km/h | 93.00% | 1020.00 hPa
  • 21-11-2017 22:00:00 | 12.20°C | Norte |3.00 km/h | 93.00% | 1020.20 hPa
  • 21-11-2017 21:00:00 | 12.50°C | Calma |0.00 km/h | 91.00% | 1020.20 hPa
  • 21-11-2017 20:00:00 | 13.80°C | Calma |0.00 km/h | 87.00% | 1020.20 hPa
  • 21-11-2017 19:00:00 | 14.90°C | Este |5.00 km/h | 84.00% | 1020.20 hPa
  • 21-11-2017 18:00:00 | 17.10°C | Sudoeste |9.00 km/h | 77.00% | 1020.20 hPa
  • 21-11-2017 17:00:00 | 18.40°C | Sudoeste |14.00 km/h | 71.00% | 1020.10 hPa
  • 21-11-2017 16:00:00 | 19.50°C | Sudoeste |17.00 km/h | 69.00% | 1020.10 hPa
  • 21-11-2017 15:00:00 | 20.10°C | Sudoeste |17.00 km/h | 66.00% | 1020.10 hPa
  • 21-11-2017 14:00:00 | 20.30°C | Sudoeste |15.00 km/h | 63.00% | 1020.30 hPa
  • 21-11-2017 13:00:00 | 20.20°C | Sudoeste |13.00 km/h | 66.00% | 1020.90 hPa
  • 21-11-2017 12:00:00 | 20.00°C | Sudoeste |10.00 km/h | 66.00% | 1021.70 hPa
  • 21-11-2017 11:00:00 | 16.60°C | Calma |0.00 km/h | 79.00% | 1022.10 hPa
  • 21-11-2017 10:00:00 | 11.40°C | Calma |0.00 km/h | 97.00% | 1022.20 hPa
    • Datos gráficos mensuales de Palma de Mallorca Aeropuerto: